Time;durP1;ratioP1;P1;durP2;ratioP2;P2;SDS_P1;SDS_P2;PMS_P1;PMS_P2;Temp;Humidity;BMP_temperature;BMP_pressure;BME280_temperature;BME280_humidity;BME280_pressure;Samples;Min_cycle;Max_cycle;Signal;HPM_P1;HPM_P2
2021/05/26 04:57:04;;;;;;;11.80;7.22;;;;;;;12.76;100.00;98909.44;1700779;80;22683;-56
2021/05/26 04:59:32;;;;;;;12.78;7.40;;;;;;;12.62;100.00;98902.18;1753913;82;21061;-56
2021/05/26 05:02:01;;;;;;;12.63;6.85;;;;;;;12.48;100.00;98918.67;1764232;80;21065;-57
2021/05/26 05:04:28;;;;;;;12.58;6.92;;;;;;;12.29;100.00;98920.19;1757982;80;21121;-57
2021/05/26 05:06:56;;;;;;;11.43;6.95;;;;;;;12.17;100.00;98931.98;1734306;81;21041;-56
2021/05/26 05:09:24;;;;;;;11.88;6.25;;;;;;;12.06;100.00;98953.81;1734348;83;21039;-57
2021/05/26 05:11:52;;;;;;;8.10;5.60;;;;;;;12.01;100.00;98967.66;1737212;80;21052;-56
2021/05/26 05:14:20;;;;;;;8.58;4.85;;;;;;;11.93;100.00;98940.20;1780992;80;21033;-58
2021/05/26 05:16:48;;;;;;;12.43;5.75;;;;;;;11.81;100.00;98912.31;1738571;80;21562;-58
2021/05/26 05:19:17;;;;;;;14.23;5.78;;;;;;;11.94;100.00;98944.45;1786229;80;21583;-57
2021/05/26 05:21:47;;;;;;;10.08;5.75;;;;;;;11.97;100.00;98937.41;1748066;80;21570;-57
2021/05/26 05:24:15;;;;;;;11.18;5.47;;;;;;;12.02;100.00;98960.03;1734595;80;21566;-56
2021/05/26 05:26:42;;;;;;;14.38;5.35;;;;;;;12.08;100.00;98963.13;1742871;81;21060;-56
2021/05/26 05:29:10;;;;;;;8.98;4.80;;;;;;;12.15;100.00;98959.11;1764601;81;21053;-59
2021/05/26 05:31:38;;;;;;;8.93;5.17;;;;;;;12.17;100.00;98974.27;1764529;81;21044;-59
2021/05/26 05:34:06;;;;;;;9.45;5.22;;;;;;;12.10;100.00;98982.73;1764569;81;21550;-59
2021/05/26 05:36:33;;;;;;;10.63;5.20;;;;;;;11.97;100.00;98959.86;1764688;81;21033;-62
2021/05/26 05:39:01;;;;;;;9.50;5.37;;;;;;;11.82;100.00;98980.50;1764445;80;21017;-61
2021/05/26 05:41:30;;;;;;;11.12;4.83;;;;;;;11.73;100.00;98995.73;1770031;80;21076;-61
2021/05/26 05:43:57;;;;;;;6.85;4.30;;;;;;;11.72;100.00;98993.31;1795918;80;21041;-57
2021/05/26 05:46:25;;;;;;;12.20;5.28;;;;;;;11.67;100.00;98990.79;1795710;80;21590;-59
2021/05/26 05:48:53;;;;;;;8.78;4.72;;;;;;;11.65;100.00;98990.72;1795926;80;21076;-60
2021/05/26 05:51:20;;;;;;;13.25;5.20;;;;;;;11.65;100.00;98981.48;1796027;80;21068;-61
2021/05/26 05:53:48;;;;;;;9.88;4.95;;;;;;;11.69;100.00;98987.42;1795849;80;21560;-60
2021/05/26 05:56:15;;;;;;;12.78;5.53;;;;;;;11.70;100.00;98982.46;1771092;80;21057;-57
2021/05/26 05:58:44;;;;;;;11.48;5.97;;;;;;;11.76;100.00;98977.36;1795633;79;21114;-59
2021/05/26 06:01:11;;;;;;;11.33;5.97;;;;;;;11.80;100.00;98994.37;1819737;79;21056;-61
2021/05/26 06:03:39;;;;;;;11.75;5.78;;;;;;;11.84;100.00;98990.33;1790560;79;21306;-64
2021/05/26 06:06:08;;;;;;;11.48;5.60;;;;;;;11.89;100.00;99001.08;1819770;78;21091;-58
2021/05/26 06:08:35;;;;;;;13.83;5.90;;;;;;;11.93;100.00;99004.41;1819667;79;21024;-59
2021/05/26 06:11:03;;;;;;;11.83;5.60;;;;;;;12.02;100.00;99007.59;1798027;79;21080;-59
2021/05/26 06:13:33;;;;;;;10.08;5.40;;;;;;;12.11;100.00;99006.31;1778181;79;21009;-59
2021/05/26 06:16:01;;;;;;;11.60;5.90;;;;;;;12.21;100.00;99007.14;1785608;80;21104;-59
2021/05/26 06:18:28;;;;;;;11.35;5.75;;;;;;;12.28;100.00;99004.48;1775629;79;21064;-58
2021/05/26 06:20:56;;;;;;;10.55;5.55;;;;;;;12.29;100.00;99000.81;1754515;81;21016;-60
2021/05/26 06:23:24;;;;;;;9.58;5.12;;;;;;;12.33;97.18;99006.77;1733879;82;21067;-60
2021/05/26 06:25:52;;;;;;;11.70;5.35;;;;;;;12.34;97.05;98979.31;1734426;80;21059;-59
2021/05/26 06:28:20;;;;;;;12.98;6.15;;;;;;;12.44;98.84;98987.57;1765849;81;21071;-59
2021/05/26 06:30:49;;;;;;;10.63;5.67;;;;;;;12.59;97.69;98985.09;1787035;79;21099;-61
2021/05/26 06:33:17;;;;;;;9.35;5.45;;;;;;;12.75;94.54;98985.86;1765996;81;21071;-62
2021/05/26 06:35:45;;;;;;;10.25;5.85;;;;;;;12.80;93.87;98979.41;1765347;81;21576;-60
2021/05/26 06:38:13;;;;;;;13.20;5.70;;;;;;;12.81;92.46;98994.25;1764840;81;21011;-58
2021/05/26 06:40:42;;;;;;;13.22;5.80;;;;;;;12.81;91.61;99002.70;1765524;81;21119;-57
2021/05/26 06:43:10;;;;;;;11.33;5.80;;;;;;;12.81;92.03;99010.63;1761098;79;21673;-57
2021/05/26 06:45:38;;;;;;;12.73;6.17;;;;;;;12.89;92.25;99009.02;1761121;81;21603;-58
2021/05/26 06:48:07;;;;;;;11.12;5.78;;;;;;;12.90;92.95;99014.11;1761253;81;21074;-58
2021/05/26 06:50:35;;;;;;;10.15;5.85;;;;;;;12.99;92.24;99017.27;1761509;81;21526;-57
2021/05/26 06:53:03;;;;;;;11.85;5.30;;;;;;;13.05;91.87;99016.39;1761642;81;21019;-57
2021/05/26 06:55:31;;;;;;;9.38;5.22;;;;;;;13.08;92.21;99013.83;1760898;81;21541;-55
2021/05/26 06:57:59;;;;;;;9.23;5.10;;;;;;;13.14;91.73;99013.76;1759699;81;21119;-55
2021/05/26 07:00:29;;;;;;;9.60;5.40;;;;;;;13.19;88.40;99017.87;1748027;82;21050;-57
2021/05/26 07:02:57;;;;;;;10.90;5.50;;;;;;;13.19;86.80;99015.72;1748147;81;21044;-51
2021/05/26 07:05:25;;;;;;;12.07;5.65;;;;;;;13.21;88.54;99013.71;1747845;82;21510;-55
2021/05/26 07:07:54;;;;;;;8.03;5.12;;;;;;;13.28;88.17;99003.85;1747091;82;21530;-60
2021/05/26 07:10:23;;;;;;;10.08;5.33;;;;;;;13.40;87.16;98993.33;1745133;82;21051;-54
2021/05/26 07:12:50;;;;;;;10.30;5.17;;;;;;;13.50;86.47;98993.09;1744234;82;21044;-64
2021/05/26 07:15:19;;;;;;;10.78;5.50;;;;;;;13.62;87.13;98991.82;1745748;82;21107;-68
2021/05/26 07:17:46;;;;;;;10.58;5.33;;;;;;;13.75;85.78;98998.78;1728001;82;21735;-58
2021/05/26 07:20:15;;;;;;;10.63;5.17;;;;;;;13.85;84.78;99009.66;1745817;81;21095;-58
2021/05/26 07:22:42;;;;;;;12.28;5.90;;;;;;;13.88;84.22;98995.97;1747790;82;21041;-56
2021/05/26 07:25:11;;;;;;;9.35;5.30;;;;;;;13.96;84.19;99000.94;1747865;81;21032;-58
2021/05/26 07:27:38;;;;;;;10.98;5.10;;;;;;;14.22;82.79;98994.94;1747721;82;21507;-59
2021/05/26 07:30:08;;;;;;;11.00;5.22;;;;;;;14.50;81.13;98998.30;1748037;82;21516;-59
2021/05/26 07:32:35;;;;;;;11.22;5.30;;;;;;;14.82;81.79;99002.23;1746454;82;21602;-57
2021/05/26 07:35:04;;;;;;;9.55;5.20;;;;;;;15.22;78.19;99001.50;1745878;82;21056;-58
2021/05/26 07:37:33;;;;;;;11.68;5.20;;;;;;;15.51;77.20;99007.66;1747214;82;21076;-62
2021/05/26 07:40:00;;;;;;;9.20;5.72;;;;;;;15.85;72.20;99024.55;1747108;82;21594;-61
2021/05/26 07:42:28;;;;;;;13.25;5.72;;;;;;;16.00;71.14;99024.04;1747556;82;21016;-58
2021/05/26 07:44:55;;;;;;;11.48;5.22;;;;;;;16.14;73.25;99029.86;1747897;82;21071;-60
2021/05/26 07:47:23;;;;;;;9.20;5.10;;;;;;;16.34;72.12;99026.72;1749234;82;21030;-62
2021/05/26 07:49:52;;;;;;;8.83;4.85;;;;;;;16.44;71.76;99023.70;1725514;83;21087;-57
2021/05/26 07:52:21;;;;;;;8.93;4.80;;;;;;;16.51;69.44;99022.73;1737058;81;21119;-58
2021/05/26 07:54:50;;;;;;;12.85;6.03;;;;;;;16.64;67.89;99031.22;1758083;81;21775;-57
2021/05/26 07:57:18;;;;;;;9.40;4.58;;;;;;;16.69;67.65;99027.84;1758165;81;21107;-60
2021/05/26 07:59:46;;;;;;;9.93;4.15;;;;;;;16.78;67.48;99024.26;1777801;80;21610;-61
2021/05/26 08:02:15;;;;;;;7.65;4.30;;;;;;;16.86;66.90;99031.32;1777773;80;20997;-62
2021/05/26 08:04:44;;;;;;;7.45;4.25;;;;;;;16.89;66.13;99035.34;1774501;81;21064;-58
2021/05/26 08:07:12;;;;;;;5.78;3.85;;;;;;;16.89;64.20;99021.50;1732539;81;21030;-62
2021/05/26 08:09:41;;;;;;;7.25;4.00;;;;;;;16.85;67.04;99024.36;1742360;82;21044;-58
2021/05/26 08:12:12;;;;;;;8.50;4.33;;;;;;;16.71;62.30;99023.91;1774438;81;21080;-60
2021/05/26 08:14:43;;;;;;;4.58;3.37;;;;;;;16.55;65.78;99028.67;1769013;80;21022;-57
2021/05/26 08:17:11;;;;;;;5.67;3.57;;;;;;;16.53;63.37;99035.30;1722429;82;21009;-64
2021/05/26 08:19:38;;;;;;;6.97;3.72;;;;;;;16.42;63.49;99036.98;1744696;82;21065;-60
2021/05/26 08:22:06;;;;;;;6.30;3.72;;;;;;;16.40;62.78;99039.89;1772965;81;21033;-58
2021/05/26 08:24:39;;;;;;;9.20;4.03;;;;;;;16.39;64.93;99032.94;1724280;82;21053;-61
2021/05/26 08:27:03;;;;;;;5.10;3.58;;;;;;;16.51;66.50;99043.50;1743862;82;21016;-60
2021/05/26 08:29:34;;;;;;;8.93;3.70;;;;;;;16.66;64.23;99038.95;1772864;81;21097;-55
2021/05/26 08:32:02;;;;;;;8.40;3.47;;;;;;;16.73;63.07;99048.41;1772772;81;21049;-56
2021/05/26 08:34:29;;;;;;;11.03;4.65;;;;;;;16.74;62.55;99034.58;1772766;81;21076;-54
2021/05/26 08:36:58;;;;;;;6.45;3.98;;;;;;;16.68;64.60;99035.52;1772854;81;21068;-57
2021/05/26 08:39:26;;;;;;;4.97;3.50;;;;;;;16.78;63.75;99027.72;1772893;81;21033;-55
2021/05/26 08:41:53;;;;;;;5.62;2.95;;;;;;;16.75;62.42;99028.23;1772683;81;21045;-56
2021/05/26 08:44:22;;;;;;;5.15;3.10;;;;;;;16.65;61.59;99034.69;1773071;81;21081;-56
2021/05/26 08:46:52;;;;;;;6.35;3.08;;;;;;;16.66;63.73;99045.08;1772929;81;21056;-54
2021/05/26 08:49:21;;;;;;;8.03;3.47;;;;;;;16.67;59.58;99046.69;1772679;81;21100;-56
2021/05/26 08:51:49;;;;;;;4.40;3.22;;;;;;;16.45;60.56;99031.97;1772787;81;21072;-56
2021/05/26 08:54:17;;;;;;;5.95;3.30;;;;;;;16.32;60.47;99037.61;1751245;82;21073;-56
2021/05/26 08:56:45;;;;;;;6.67;3.45;;;;;;;16.19;60.79;99040.58;1744601;82;21139;-61
2021/05/26 08:59:16;;;;;;;5.53;3.10;;;;;;;16.18;61.67;99053.61;1772888;81;21061;-57
2021/05/26 09:01:53;;;;;;;7.17;3.27;;;;;;;16.19;63.38;99037.40;1758281;81;21078;-58
2021/05/26 09:04:31;;;;;;;5.58;3.15;;;;;;;16.39;63.57;99044.91;1745634;82;21081;-59
2021/05/26 09:07:21;;;;;;;8.38;3.40;;;;;;;16.42;60.84;99055.61;1758407;81;21011;-58
2021/05/26 09:10:05;;;;;;;3.58;2.92;;;;;;;16.20;62.24;99049.64;1745698;81;21026;-56
2021/05/26 09:12:39;;;;;;;4.22;2.98;;;;;;;16.18;63.28;99039.78;1748282;81;21075;-55
2021/05/26 09:15:17;;;;;;;5.05;3.75;;;;;;;16.21;59.86;99037.16;1735311;81;21055;-57
2021/05/26 09:17:44;;;;;;;6.15;3.58;;;;;;;16.22;58.95;99033.44;1729348;83;21169;-57
2021/05/26 09:20:29;;;;;;;6.90;3.45;;;;;;;16.12;61.37;99027.97;1728632;83;21038;-58
2021/05/26 09:23:22;;;;;;;5.37;3.52;;;;;;;16.09;62.88;99027.91;1745408;82;21104;-55
2021/05/26 09:25:52;;;;;;;7.62;3.95;;;;;;;16.14;62.75;99038.64;1742878;81;21084;-58
2021/05/26 09:28:32;;;;;;;;;;;;;;;16.13;62.37;99038.36;1746996;82;22530;-56
2021/05/26 09:31:07;;;;;;;5.45;3.80;;;;;;;16.13;61.33;99046.34;1745059;82;20212;-55
2021/05/26 09:33:47;;;;;;;5.58;3.72;;;;;;;16.31;62.75;99044.51;1755271;79;21063;-55
2021/05/26 09:36:19;;;;;;;7.58;3.72;;;;;;;16.65;63.53;99044.81;1787739;79;21067;-54
2021/05/26 09:38:57;;;;;;;6.42;3.58;;;;;;;17.07;62.15;99035.06;1770268;79;21068;-53
2021/05/26 09:41:33;;;;;;;5.25;3.40;;;;;;;17.22;60.01;99047.27;1773458;80;21507;-52
2021/05/26 09:44:10;;;;;;;9.28;3.65;;;;;;;17.14;57.05;99037.02;1782221;80;21562;-54
2021/05/26 09:46:39;;;;;;;6.08;3.35;;;;;;;16.90;57.71;99037.75;1782213;80;21071;-54
2021/05/26 09:49:19;;;;;;;4.67;3.70;;;;;;;16.76;59.52;99049.80;1782037;80;21525;-54
2021/05/26 09:51:51;;;;;;;5.97;4.05;;;;;;;16.80;59.95;99034.13;1782304;80;21048;-54
2021/05/26 09:54:24;;;;;;;7.83;3.50;;;;;;;16.85;60.45;99042.19;1782165;80;21507;-56
2021/05/26 09:57:06;;;;;;;5.47;3.40;;;;;;;16.90;60.34;99046.27;1781977;80;21216;-54
2021/05/26 09:59:35;;;;;;;8.83;4.03;;;;;;;16.97;59.54;99035.75;1782031;80;21032;-53
2021/05/26 10:02:06;;;;;;;7.37;3.60;;;;;;;16.97;59.45;99041.07;1782084;80;21037;-53
2021/05/26 10:04:33;;;;;;;5.15;3.80;;;;;;;17.03;59.27;99034.45;1782093;80;21072;-55
2021/05/26 10:07:19;;;;;;;5.60;3.58;;;;;;;17.06;59.55;99044.63;1755678;80;21032;-54
2021/05/26 10:09:47;;;;;;;8.73;3.62;;;;;;;17.10;58.99;99043.91;1762746;80;21060;-54
2021/05/26 10:12:20;;;;;;;5.45;3.60;;;;;;;17.10;58.18;99025.79;1709670;81;21217;-53
2021/05/26 10:14:48;;;;;;;7.80;4.00;;;;;;;17.00;59.30;99035.77;1765816;80;21072;-55
2021/05/26 10:17:23;;;;;;;6.70;3.80;;;;;;;16.96;59.05;99038.10;1764823;80;21666;-53
2021/05/26 10:19:50;;;;;;;5.62;3.58;;;;;;;16.95;57.97;99047.67;1740819;80;21036;-54
2021/05/26 10:22:18;;;;;;;9.50;4.47;;;;;;;16.84;60.27;99042.72;1786450;80;21051;-56
2021/05/26 10:24:46;;;;;;;8.18;3.55;;;;;;;16.81;58.43;99055.73;1787365;80;21043;-55
2021/05/26 10:27:36;;;;;;;5.25;4.10;;;;;;;16.83;58.58;99042.45;1787489;80;21060;-55
2021/05/26 10:30:07;;;;;;;4.95;3.72;;;;;;;16.98;59.44;99046.67;1787470;80;21562;-56
2021/05/26 10:33:03;;;;;;;5.92;3.47;;;;;;;17.21;59.64;99044.33;1754494;82;21040;-57
2021/05/26 10:35:35;;;;;;;6.47;3.80;;;;;;;17.32;58.54;99041.77;1787224;80;21016;-58
2021/05/26 10:38:07;;;;;;;7.03;3.20;;;;;;;17.37;57.05;99046.64;1729570;80;21049;-56
2021/05/26 10:40:41;;;;;;;6.47;3.35;;;;;;;17.39;56.16;99044.55;1765731;81;21045;-56
2021/05/26 10:43:21;;;;;;;4.78;3.17;;;;;;;17.38;57.22;99039.48;1765673;81;21079;-56
2021/05/26 10:45:52;;;;;;;6.67;3.20;;;;;;;17.30;56.19;99030.04;1792606;80;21626;-55
2021/05/26 10:48:42;;;;;;;4.78;2.90;;;;;;;17.32;59.09;99032.45;1734242;83;21045;-55
2021/05/26 10:51:13;;;;;;;4.70;2.65;;;;;;;17.37;56.01;99036.52;1754714;81;21607;-56
2021/05/26 10:53:43;;;;;;;9.23;3.00;;;;;;;17.35;55.07;99026.64;1787168;80;21555;-56
2021/05/26 10:56:36;;;;;;;11.08;3.25;;;;;;;17.38;54.19;99030.96;1737978;81;21085;-55
2021/05/26 10:59:10;;;;;;;6.50;3.20;;;;;;;17.46;53.80;99030.52;1765180;81;21171;-56
2021/05/26 11:02:12;;;;;;;6.08;3.25;;;;;;;17.56;55.70;99021.04;1807932;79;20977;-56
2021/05/26 11:04:40;;;;;;;5.55;3.10;;;;;;;17.68;56.38;99025.18;1813291;79;21047;-54
2021/05/26 11:07:29;;;;;;;6.47;2.85;;;;;;;17.62;54.92;99012.84;1813981;79;21508;-56
2021/05/26 11:10:06;;;;;;;6.45;3.10;;;;;;;17.65;55.54;99028.86;1777043;79;21614;-58
2021/05/26 11:12:58;;;;;;;7.08;3.35;;;;;;;17.74;54.91;99030.06;1809433;79;21029;-59
2021/05/26 11:15:44;;;;;;;7.53;3.47;;;;;;;17.76;54.45;99029.28;1813710;79;21088;-56
2021/05/26 11:18:22;;;;;;;6.40;3.55;;;;;;;17.87;56.43;99022.20;1813402;79;21164;-55
2021/05/26 11:20:45;;;;;;;7.92;3.33;;;;;;;18.09;55.15;99024.30;1812715;79;21543;-57
2021/05/26 11:23:14;;;;;;;8.63;3.83;;;;;;;18.16;54.94;99018.22;1813841;79;21025;-57
2021/05/26 11:25:57;;;;;;;6.28;3.70;;;;;;;18.30;55.82;99020.76;1813555;79;21113;-58
2021/05/26 11:28:32;;;;;;;8.18;4.10;;;;;;;18.52;55.75;99011.33;1813544;79;21063;-54
2021/05/26 11:31:04;;;;;;;8.78;4.05;;;;;;;18.73;54.63;99015.50;1813780;79;21102;-57
2021/05/26 11:33:32;;;;;;;5.00;3.45;;;;;;;18.92;54.96;99014.55;1813765;79;21512;-55
2021/05/26 11:36:04;;;;;;;6.78;3.55;;;;;;;19.02;53.72;99011.94;1813717;79;21087;-54
2021/05/26 11:38:32;;;;;;;7.17;4.12;;;;;;;18.99;52.78;99017.28;1813827;79;21016;-56
2021/05/26 11:41:03;;;;;;;6.67;3.70;;;;;;;18.78;52.96;99019.01;1813732;79;21529;-55
2021/05/26 11:43:32;;;;;;;5.12;3.22;;;;;;;18.46;52.33;99029.67;1807590;79;21506;-54
2021/05/26 11:46:07;;;;;;;5.25;3.70;;;;;;;18.25;52.75;99027.38;1793500;79;21594;-56
2021/05/26 11:48:35;;;;;;;6.35;3.58;;;;;;;18.04;52.42;99033.05;1813774;79;21541;-58
2021/05/26 11:51:04;;;;;;;6.97;3.30;;;;;;;17.89;54.13;99026.24;1805999;79;21012;-56
2021/05/26 11:53:32;;;;;;;4.17;3.17;;;;;;;17.93;55.84;99030.00;1801539;79;21008;-56
2021/05/26 11:56:02;;;;;;;6.22;3.65;;;;;;;18.13;55.45;99025.94;1813718;79;21060;-55
2021/05/26 11:58:37;;;;;;;8.60;3.30;;;;;;;18.41;53.78;99031.50;1810943;79;21020;-56
2021/05/26 12:01:08;;;;;;;9.38;3.12;;;;;;;18.62;55.05;99022.59;1783655;80;21593;-56
2021/05/26 12:03:35;;;;;;;6.45;3.47;;;;;;;18.78;55.06;99031.56;1787418;80;21078;-55
2021/05/26 12:06:05;;;;;;;7.92;3.17;;;;;;;18.97;53.74;99024.73;1765724;81;21566;-56
2021/05/26 12:08:41;;;;;;;5.20;3.00;;;;;;;19.07;53.85;99022.66;1792633;80;21039;-56
2021/05/26 12:11:14;;;;;;;9.93;3.30;;;;;;;19.08;52.60;99017.05;1795313;80;21078;-59
2021/05/26 12:13:45;;;;;;;6.95;3.33;;;;;;;19.03;52.78;99021.02;1797437;80;21043;-58
2021/05/26 12:16:17;;;;;;;6.28;3.30;;;;;;;19.06;51.36;99020.52;1730994;80;21570;-57
2021/05/26 12:18:55;;;;;;;9.43;3.47;;;;;;;19.13;51.34;99021.62;1778452;80;21071;-55
2021/05/26 12:21:26;;;;;;;13.93;9.20;;;;;;;19.26;49.86;99015.00;1773480;80;21005;-58
2021/05/26 12:24:14;;;;;;;15.48;7.85;;;;;;;19.36;49.60;99007.83;1755553;80;21061;-58
2021/05/26 12:26:36;;;;;;;18.95;7.58;;;;;;;19.49;50.48;99009.20;1743876;82;21068;-59
2021/05/26 12:29:09;;;;;;;10.48;5.50;;;;;;;19.72;50.24;99003.16;1745717;82;21013;-56
2021/05/26 12:31:36;;;;;;;7.17;3.80;;;;;;;19.93;49.16;99000.01;1745175;80;21105;-60
2021/05/26 12:34:13;;;;;;;6.65;3.70;;;;;;;20.05;48.50;98997.34;1749268;81;21068;-58
2021/05/26 12:36:52;;;;;;;6.67;3.40;;;;;;;20.14;48.97;98985.59;1749798;80;21608;-58
2021/05/26 12:39:23;;;;;;;6.30;3.25;;;;;;;20.30;49.13;98988.55;1773598;80;21008;-57
2021/05/26 12:41:51;;;;;;;5.83;3.30;;;;;;;20.47;49.22;98982.13;1779907;80;20997;-54
2021/05/26 12:44:21;;;;;;;8.20;3.10;;;;;;;20.57;48.66;98983.45;1768642;80;21064;-54
2021/05/26 12:46:57;;;;;;;3.92;3.17;;;;;;;20.68;48.00;98980.49;1765231;80;21064;-55
2021/05/26 12:49:36;;;;;;;6.42;3.10;;;;;;;20.77;47.00;98983.44;1763578;80;21021;-55
2021/05/26 12:52:09;;;;;;;6.45;3.00;;;;;;;20.76;45.91;98974.31;1772548;79;20996;-57
2021/05/26 12:54:43;;;;;;;4.28;3.10;;;;;;;20.60;45.08;98970.34;1805290;79;21503;-60
2021/05/26 12:57:14;;;;;;;4.42;2.70;;;;;;;20.45;45.99;98970.31;1790028;78;21110;-57
2021/05/26 12:59:43;;;;;;;6.85;3.00;;;;;;;20.39;46.10;98968.72;1814176;79;21126;-60
2021/05/26 13:02:13;;;;;;;4.90;2.90;;;;;;;20.33;45.73;98967.92;1822359;78;20993;-58
2021/05/26 13:04:48;;;;;;;5.42;2.83;;;;;;;20.21;45.99;98966.05;1822182;79;21099;-57
2021/05/26 13:07:29;;;;;;;6.17;3.05;;;;;;;20.15;45.67;98962.57;1822259;79;21048;-60
2021/05/26 13:09:58;;;;;;;4.67;3.10;;;;;;;20.15;45.32;98961.77;1822335;78;21550;-56
2021/05/26 13:12:30;;;;;;;5.78;3.20;;;;;;;20.13;46.21;98962.05;1822289;78;21127;-58
2021/05/26 13:15:23;;;;;;;4.15;3.00;;;;;;;20.06;46.08;98969.52;1822174;79;21531;-58
2021/05/26 13:17:55;;;;;;;5.22;2.85;;;;;;;19.95;46.00;98960.41;1822154;78;21094;-56
2021/05/26 13:20:31;;;;;;;5.78;3.10;;;;;;;19.85;46.61;98958.55;1822418;79;21055;-58
2021/05/26 13:23:00;;;;;;;6.03;3.30;;;;;;;19.87;46.67;98957.73;1819660;79;21040;-56
2021/05/26 13:25:28;;;;;;;6.70;3.10;;;;;;;19.91;46.02;98966.05;1813115;79;21027;-55
2021/05/26 13:27:56;;;;;;;5.80;3.02;;;;;;;19.90;46.78;98950.53;1806323;78;21071;-60
2021/05/26 13:30:27;;;;;;;4.12;2.67;;;;;;;19.92;45.24;98959.08;1781562;80;21157;-56
2021/05/26 13:32:54;;;;;;;;;;;;;;;19.87;45.53;98949.70;1783619;80;21076;-54
2021/05/26 13:35:22;;;;;;;4.50;2.85;;;;;;;19.83;44.87;98952.09;1777316;80;20522;-57
2021/05/26 13:37:51;;;;;;;6.08;2.75;;;;;;;19.75;44.94;98950.50;1776196;80;21090;-56
2021/05/26 13:40:20;;;;;;;7.08;3.50;;;;;;;19.74;44.79;98946.22;1772627;80;21633;-65
2021/05/26 13:42:49;;;;;;;3.83;3.17;;;;;;;19.74;45.36;98943.02;1774116;80;21575;-58
2021/05/26 13:45:17;;;;;;;3.67;2.87;;;;;;;19.76;46.15;98940.86;1769374;80;21184;-60
2021/05/26 13:47:45;;;;;;;5.78;3.27;;;;;;;19.79;45.90;98936.88;1762835;80;21059;-57
2021/05/26 13:50:17;;;;;;;8.40;4.00;;;;;;;19.82;46.28;98933.11;1758368;81;21075;-48
2021/05/26 13:52:57;;;;;;;6.20;2.77;;;;;;;19.83;46.89;98926.69;1758681;81;21126;-59
2021/05/26 13:55:26;;;;;;;7.12;3.20;;;;;;;19.88;46.42;98930.71;1756359;81;21653;-51
